Latest Weather Observations for Weipa

IDQ60801

Issued at 7:32 am EST Sunday 26 March 2017 (issued every 30 minutes, with the page automatically refreshed every 10 minutes)

About weather observations | Map of weather stations | Latest weather observations for QLD | Other Formats
Station Details ID: 027045 Name: WEIPA AERO Lat: -12.68 Lon: 141.92 Height: 17.96 m
Data from the previous 72 hours. | See also: Recent months at Weipa
Date/Time
EST
Temp
°C
App
Temp
°C
Dew
Point
°C
Rel
Hum
%
Delta-T
°C
Wind Press
QNH
hPa
Press
MSL
hPa
Rain since
9am
mm
Dir  Spd
km/h
Gust
km/h
Spd
kts
Gust
kts
26/07:30am 24.9 29.9 23.9 94 0.7 N 4 6 2 3 1009.8 - 22.4
26/07:00am 24.8 30.6 23.9 95 0.6 CALM 0 2 0 1 1009.7 - 22.4
26/06:30am 24.7 30.0 23.7 94 0.7 ENE 2 6 1 3 1009.3 - 22.4
26/06:00am 24.7 29.6 23.7 94 0.7 ESE 4 6 2 3 1009.0 1008.8 22.4
26/05:30am 24.6 29.8 23.5 94 0.7 ESE 2 6 1 3 1008.7 - 22.4
26/05:00am 24.6 29.8 23.5 94 0.7 SSW 2 6 1 3 1008.1 - 22.4
26/04:30am 24.7 30.2 23.4 92 0.9 CALM 0 4 0 2 1008.0 - 22.4
26/04:00am 24.6 29.3 23.3 92 0.9 ESE 4 7 2 4 1007.9 - 22.4
26/03:30am 24.5 28.2 23.3 93 0.8 E 9 13 5 7 1008.5 - 22.4
26/03:00am 24.5 28.8 23.3 93 0.8 ESE 6 9 3 5 1008.6 1008.4 22.4
26/02:30am 24.5 28.2 23.2 92 0.9 ESE 9 11 5 6 1008.9 - 21.8
26/02:00am 24.5 29.1 23.2 92 0.9 S 4 13 2 7 1009.1 - 21.4
26/01:30am 24.5 29.0 23.0 91 1.0 NNE 4 6 2 3 1009.5 - 21.2
26/01:00am 24.4 28.7 22.6 90 1.2 SSW 4 7 2 4 1010.0 - 21.2
26/12:40am 24.8 28.8 23.1 90 1.2 WNW 7 11 4 6 1010.2 - 21.0
26/12:30am 24.9 29.0 23.2 90 1.2 WNW 7 13 4 7 1010.4 - 21.0
26/12:16am 25.0 28.3 23.2 90 1.2 W 11 19 6 10 1010.7 - 19.4
26/12:00am 25.5 29.7 24.1 92 1.0 WNW 9 13 5 7 1010.6 1010.4 18.0
 
Date/Time
EST
Temp
°C
App
Temp
°C
Dew
Point
°C
Rel
Hum
%
Delta-T
°C
Wind Press
QNH
hPa
Press
MSL
hPa
Rain since
9am
mm
Dir  Spd
km/h
Gust
km/h
Spd
kts
Gust
kts
25/11:36pm 25.4 30.7 23.7 90 1.2 SSE 2 7 1 4 1010.1 - 18.0
25/11:30pm 25.3 29.6 23.6 90 1.2 SSE 7 15 4 8 1010.2 - 18.0
25/11:05pm 25.9 29.0 23.6 87 1.6 SSW 13 28 7 15 1010.7 - 15.0
25/11:00pm 26.6 30.0 23.4 82 2.2 SW 11 28 6 15 1010.7 - 14.2
25/10:30pm 27.3 33.6 25.3 89 1.4 E 2 4 1 2 1010.1 - 14.2
25/10:00pm 27.4 33.9 25.0 87 1.7 CALM 0 4 0 2 1009.8 - 14.2
25/09:30pm 27.8 34.4 25.2 86 1.8 CALM 0 2 0 1 1009.1 - 14.2
25/09:00pm 27.9 33.2 25.0 84 2.0 NNW 6 7 3 4 1008.4 1008.2 14.2
25/08:30pm 28.5 34.2 25.0 81 2.5 WSW 4 11 2 6 1008.3 - 14.2
25/08:00pm 28.7 34.0 24.9 80 2.7 WSW 6 15 3 8 1008.1 - 14.2
25/07:30pm 28.6 34.2 24.9 80 2.6 W 4 7 2 4 1007.6 - 14.2
25/07:00pm 28.8 33.6 24.4 77 3.1 W 7 17 4 9 1007.1 - 14.2
25/06:30pm 29.4 33.7 24.2 73 3.6 W 9 19 5 10 1006.8 - 14.2
25/06:00pm 30.1 34.2 24.6 72 3.9 W 11 20 6 11 1006.7 1006.5 14.2
25/05:30pm 30.7 34.4 24.6 70 4.3 W 13 24 7 13 1006.7 - 14.2
25/05:00pm 30.7 34.6 24.8 71 4.1 W 13 24 7 13 1006.4 - 14.2
25/04:30pm 31.2 35.6 25.6 72 4.0 W 13 24 7 13 1006.1 - 14.2
25/04:00pm 31.2 35.4 25.4 71 4.1 W 13 24 7 13 1006.1 - 14.2
25/03:30pm 31.0 34.7 25.2 71 4.1 W 15 24 8 13 1006.2 - 14.2
25/03:00pm 30.3 34.5 24.8 72 3.9 W 11 19 6 10 1006.2 1006.0 14.2
25/02:30pm 30.5 34.2 24.5 70 4.2 W 13 24 7 13 1006.5 - 14.2
25/02:00pm 30.3 34.7 25.0 73 3.7 W 11 20 6 11 1006.9 - 14.2
25/01:30pm 30.1 34.8 25.0 74 3.6 W 9 19 5 10 1007.3 - 14.2
25/01:00pm 30.3 34.9 25.3 74 3.5 W 11 19 6 10 1008.0 - 14.2
25/12:30pm 29.9 35.0 24.9 74 3.5 W 7 15 4 8 1008.6 - 14.0
25/12:00pm 28.8 34.3 25.6 83 2.3 W 7 11 4 6 1009.1 1008.9 14.0
25/11:56am 28.6 34.4 26.1 86 1.8 WNW 7 11 4 6 1009.2 - 14.0
25/11:34am 27.0 30.9 24.9 88 1.5 WNW 13 30 7 16 1009.8 - 13.8
25/11:30am 27.1 29.8 24.1 84 2.1 WNW 17 30 9 16 1009.8 - 13.2
25/11:00am 26.8 32.7 25.3 91 1.1 ENE 4 9 2 5 1010.2 - 13.2
25/10:54am 26.0 30.4 24.5 91 1.0 ENE 9 13 5 7 1010.3 - 13.2
25/10:30am 26.0 29.9 24.2 90 1.2 N 11 26 6 14 1010.6 - 10.6
25/10:18am 26.2 27.8 23.9 87 1.6 NW 22 28 12 15 1010.5 - 5.0
25/10:00am 27.8 33.1 25.0 85 2.0 W 6 11 3 6 1010.3 - 3.2
25/09:45am 27.7 33.3 24.9 85 2.0 SSE 4 7 2 4 1010.2 - 3.2
25/09:30am 27.5 32.5 23.8 80 2.5 SSE 4 13 2 7 1010.2 - 3.2
25/09:22am 28.2 32.7 24.0 78 2.9 SW 7 15 4 8 1010.2 - 2.2
25/09:00am 29.5 35.1 25.4 78 2.9 NNW 6 13 3 7 1009.7 1009.5 0.0
25/08:30am 28.8 35.3 26.3 86 1.8 NE 4 7 2 4 1009.3 - 0.0
25/08:00am 27.5 33.1 25.5 89 1.4 ENE 6 7 3 4 1008.9 - 0.0
25/07:30am 26.5 32.6 25.1 92 1.0 NE 2 6 1 3 1008.4 - 0.0
25/07:00am 25.7 31.9 24.6 94 0.8 CALM 0 0 0 0 1008.2 - 0.0
25/06:30am 25.5 31.6 24.4 94 0.8 CALM 0 0 0 0 1008.0 - 0.0
25/06:00am 25.5 31.6 24.5 94 0.7 CALM 0 0 0 0 1007.8 1007.6 0.0
25/05:30am 25.7 31.5 24.6 94 0.8 W 2 4 1 2 1007.6 - 0.0
25/05:00am 25.8 31.6 24.6 93 0.8 SW 2 6 1 3 1007.5 - 0.0
25/04:30am 26.0 31.9 24.7 92 0.9 E 2 6 1 3 1007.3 - 0.0
25/04:00am 26.2 31.5 24.9 92 0.9 E 6 6 3 3 1007.3 - 0.0
25/03:30am 26.5 32.5 24.9 91 1.1 S 2 4 1 2 1007.6 - 0.0
25/03:00am 26.5 32.9 24.9 91 1.1 CALM 0 0 0 0 1007.7 1007.5 0.0
25/02:30am 26.3 32.7 24.9 92 1.0 CALM 0 2 0 1 1007.8 - 0.0
25/02:00am 26.2 32.1 24.7 91 1.0 NE 2 4 1 2 1008.1 - 0.0
25/01:30am 26.1 31.9 24.6 91 1.0 NE 2 6 1 3 1008.4 - 0.0
25/01:00am 26.5 32.8 24.7 90 1.3 CALM 0 0 0 0 1008.7 - 0.0
25/12:30am 26.4 32.6 24.6 90 1.2 CALM 0 4 0 2 1009.0 - 0.0
25/12:00am 26.5 32.0 24.7 90 1.3 NNE 4 7 2 4 1009.0 1008.8 0.0
 
Date/Time
EST
Temp
°C
App
Temp
°C
Dew
Point
°C
Rel
Hum
%
Delta-T
°C
Wind Press
QNH
hPa
Press
MSL
hPa
Rain since
9am
mm
Dir  Spd
km/h
Gust
km/h
Spd
kts
Gust
kts
24/11:30pm 26.8 32.4 24.8 89 1.4 N 4 6 2 3 1009.3 - 0.0
24/11:00pm 26.8 33.0 24.6 88 1.5 CALM 0 4 0 2 1009.4 - 0.0
24/10:30pm 26.9 33.0 24.4 86 1.7 CALM 0 0 0 0 1009.4 - 0.0
24/10:00pm 27.2 32.6 24.5 85 1.9 NNE 4 6 2 3 1009.3 - 0.0
24/09:30pm 27.6 32.9 25.0 86 1.8 N 6 13 3 7 1009.3 - 0.0
24/09:00pm 27.8 34.3 25.0 85 2.0 CALM 0 2 0 1 1008.7 1008.5 0.0
24/08:30pm 28.5 34.5 24.8 80 2.6 SSW 2 6 1 3 1008.6 - 0.0
24/08:00pm 28.7 34.2 24.7 79 2.8 SW 4 7 2 4 1008.6 - 0.0
24/07:30pm 28.9 34.0 24.7 78 2.9 W 6 9 3 5 1008.2 - 0.0
24/07:00pm 28.9 34.0 24.7 78 2.9 W 6 9 3 5 1007.8 - 0.0
24/06:30pm 29.2 33.6 24.4 75 3.3 W 9 15 5 8 1007.2 - 0.0
24/06:00pm 29.7 32.7 23.3 68 4.4 W 13 20 7 11 1007.2 1007.0 0.0
24/05:30pm 30.4 33.4 24.7 71 4.0 W 17 24 9 13 1006.7 - 0.0
24/05:00pm 30.9 34.1 24.4 68 4.5 W 15 28 8 15 1006.5 - 0.0
24/04:30pm 31.0 34.4 24.7 69 4.4 W 15 24 8 13 1006.4 - 0.0
24/04:00pm 31.2 34.6 24.7 68 4.6 W 15 26 8 14 1006.4 - 0.0
24/03:30pm 31.1 33.4 24.4 67 4.7 W 20 32 11 17 1006.3 - 0.0
24/03:00pm 31.1 34.0 24.4 67 4.7 W 17 32 9 17 1006.6 1006.4 0.0
24/02:30pm 31.6 34.8 24.9 67 4.7 W 17 30 9 16 1006.8 - 0.0
24/02:00pm 31.4 34.4 24.7 67 4.7 W 17 28 9 15 1007.2 - 0.0
24/01:30pm 30.7 34.4 25.1 72 3.9 W 15 26 8 14 1007.7 - 0.0
24/01:00pm 31.4 35.5 25.8 72 4.0 W 15 26 8 14 1008.3 - 0.0
24/12:30pm 31.4 36.0 25.4 70 4.2 W 11 20 6 11 1008.7 - 0.0
24/12:00pm 31.4 35.9 24.6 67 4.8 WNW 9 17 5 9 1009.3 1009.1 0.0
24/11:30am 31.3 35.2 23.6 63 5.3 WNW 9 22 5 12 1009.7 - 0.0
24/11:00am 29.9 34.3 24.4 72 3.8 WNW 9 17 5 9 1010.1 - 0.0
24/10:30am 29.6 34.0 24.5 74 3.6 NW 9 19 5 10 1010.3 - 0.0
24/10:00am 29.3 34.5 24.8 77 3.2 N 6 11 3 6 1010.2 - 0.0
24/09:30am 29.2 34.6 25.2 79 2.8 N 6 9 3 5 1010.3 - 0.0
24/09:00am 27.9 33.2 25.0 84 2.0 NNE 6 7 3 4 1010.3 1010.1 17.8
24/08:30am 26.4 31.5 24.7 90 1.2 E 6 9 3 5 1010.1 - 17.8
24/08:00am 25.0 29.3 23.7 92 0.9 E 7 9 4 5 1009.8 - 17.8
24/07:30am 24.4 29.1 23.4 94 0.7 ESE 4 6 2 3 1009.6 - 17.8
24/07:00am 24.1 29.1 23.2 95 0.6 N 2 6 1 3 1009.2 - 17.8
24/06:30am 24.0 28.9 23.1 95 0.6 NE 2 6 1 3 1008.7 - 17.8
24/06:00am 24.0 28.9 23.1 95 0.6 NE 2 4 1 2 1008.0 1007.8 17.8
24/05:30am 24.0 28.5 23.0 94 0.7 E 4 6 2 3 1007.9 - 17.8
24/05:00am 24.1 28.3 23.1 94 0.7 E 6 7 3 4 1007.8 - 17.8
24/04:30am 24.2 28.8 23.2 94 0.7 ENE 4 6 2 3 1007.8 - 17.8
24/04:00am 24.1 29.4 23.1 94 0.7 CALM 0 0 0 0 1007.6 - 17.8
24/03:30am 24.0 28.9 23.0 94 0.7 S 2 6 1 3 1007.5 - 17.6
24/03:00am 24.1 29.4 23.1 94 0.7 CALM 0 4 0 2 1007.5 1007.3 17.6
24/02:30am 23.9 28.7 22.9 94 0.7 WNW 2 7 1 4 1008.6 - 17.4
24/02:20am 23.7 27.1 22.7 94 0.7 N 9 17 5 9 1009.1 - 17.4
24/02:07am 23.5 25.2 22.3 93 0.8 ENE 17 24 9 13 1009.3 - 17.2
24/02:00am 23.2 24.8 22.1 93 0.7 ENE 17 24 9 13 1009.4 - 17.0
24/01:49am 23.2 25.5 22.0 93 0.8 ENE 13 20 7 11 1009.8 - 14.2
24/01:38am 23.6 27.2 22.1 91 1.0 E 6 11 3 6 1010.1 - 2.2
24/01:30am 23.6 26.7 22.1 91 1.0 E 9 19 5 10 1010.1 - 0.2
24/01:15am 23.7 26.6 22.4 92 0.9 NE 11 20 6 11 1010.3 - 0.2
24/01:00am 23.8 25.7 22.0 90 1.2 E 15 32 8 17 1010.3 - 0.2
24/12:56am 24.0 26.4 22.3 90 1.1 E 13 26 7 14 1010.2 - 0.2
24/12:30am 25.6 27.0 22.5 83 2.1 E 19 30 10 16 1010.4 - 0.0
24/12:00am 27.3 32.3 24.8 86 1.7 E 7 11 4 6 1010.4 1010.2 0.0
 
Date/Time
EST
Temp
°C
App
Temp
°C
Dew
Point
°C
Rel
Hum
%
Delta-T
°C
Wind Press
QNH
hPa
Press
MSL
hPa
Rain since
9am
mm
Dir  Spd
km/h
Gust
km/h
Spd
kts
Gust
kts
23/11:30pm 27.2 32.6 25.2 89 1.4 E 6 7 3 4 1010.3 - 0.0
23/11:00pm 27.3 32.6 25.0 87 1.6 ENE 6 9 3 5 1010.5 - 0.0
23/10:30pm 27.8 34.3 25.1 85 1.9 CALM 0 0 0 0 1010.3 - 0.0
23/10:00pm 28.3 34.1 24.6 80 2.6 WSW 2 4 1 2 1010.0 - 0.0
23/09:30pm 28.4 33.9 24.7 80 2.6 SW 4 7 2 4 1010.0 - 0.0
23/09:00pm 28.4 33.7 24.4 79 2.8 WSW 4 7 2 4 1009.7 1009.5 0.0
23/08:30pm 28.0 33.9 24.7 82 2.3 W 2 7 1 4 1009.1 - 0.0
23/08:00pm 27.9 33.5 24.8 83 2.2 NNW 4 4 2 2 1008.8 - 0.0
23/07:30pm 28.1 32.2 23.9 78 2.9 WNW 9 15 5 8 1008.8 - 0.0
23/07:00pm 29.0 33.8 24.5 76 3.1 W 7 17 4 9 1008.2 - 0.0
23/06:30pm 29.3 33.4 24.0 73 3.7 W 9 19 5 10 1008.0 - 0.0
23/06:00pm 29.9 33.6 24.6 73 3.7 W 13 20 7 11 1007.6 1007.4 0.0
23/05:30pm 30.4 34.1 24.6 71 4.1 W 13 26 7 14 1007.4 - 0.0
23/05:00pm 30.7 34.7 25.1 72 3.9 W 13 22 7 12 1007.2 - 0.0
23/04:30pm 31.1 34.3 25.0 70 4.3 W 17 32 9 17 1007.1 - 0.0
23/04:00pm 31.2 34.2 24.6 68 4.6 W 17 28 9 15 1007.0 - 0.0
23/03:30pm 31.5 34.1 24.0 64 5.2 W 17 26 9 14 1007.0 - 0.0
23/03:00pm 31.2 33.9 24.2 66 4.9 W 17 30 9 16 1007.1 1006.9 0.0
23/02:30pm 31.1 34.0 24.5 68 4.6 W 17 26 9 14 1007.4 - 0.0
23/02:00pm 31.3 34.2 23.8 64 5.2 W 15 22 8 12 1007.6 - 0.0
23/01:30pm 31.9 35.8 24.9 66 4.9 W 13 22 7 12 1008.1 - 0.0
23/01:00pm 31.6 35.2 25.0 68 4.7 W 15 22 8 12 1008.7 - 0.0
23/12:30pm 31.7 35.3 25.0 67 4.7 W 15 20 8 11 1009.3 - 0.0
23/12:00pm 31.2 35.1 24.9 69 4.4 W 13 19 7 10 1009.6 1009.4 0.0
23/11:30am 30.9 35.9 25.4 72 3.9 W 9 15 5 8 1010.1 - 0.0
23/11:00am 31.1 36.0 25.2 71 4.2 W 9 15 5 8 1010.6 - 0.0
23/10:30am 30.3 35.2 25.3 74 3.5 W 9 19 5 10 1010.8 - 0.0
23/10:00am 29.7 34.1 25.1 76 3.2 NW 11 17 6 9 1010.8 - 0.0
23/09:30am 29.9 35.5 25.5 77 3.1 N 6 11 3 6 1010.7 - 0.0
23/09:00am 29.3 35.8 25.0 77 3.0 CALM 0 4 0 2 1010.5 1010.3 0.0
23/08:30am 28.3 34.3 24.8 81 2.4 NW 2 6 1 3 1010.4 - 0.0
23/08:00am 27.4 33.2 25.2 88 1.5 NNE 4 7 2 4 1010.3 - 0.0

Other Formats:

Comma delimited format used in spreadsheet applications
http://www.bom.gov.au/fwo/IDQ60801/IDQ60801.94170.axf

JavaScript Object Notation format (JSON) in row-major order
http://www.bom.gov.au/fwo/IDQ60801/IDQ60801.94170.json